createdAt,value
2023-05-22T00:02:11.805Z,78.00
2023-05-22T00:04:38.790Z,78.08
2023-05-22T00:07:06.759Z,77.88
2023-05-22T00:09:33.541Z,77.88
2023-05-22T00:12:00.566Z,78.15
2023-05-22T00:14:27.285Z,78.11
2023-05-22T00:16:55.505Z,78.25
2023-05-22T00:19:23.360Z,78.28
2023-05-22T00:21:51.455Z,78.71
2023-05-22T00:24:18.286Z,78.43
2023-05-22T00:26:45.907Z,78.43
2023-05-22T00:29:12.781Z,78.67
2023-05-22T00:31:40.651Z,78.64
2023-05-22T00:34:07.431Z,78.50
2023-05-22T00:36:34.272Z,78.40
2023-05-22T00:39:01.114Z,78.59
2023-05-22T00:41:27.936Z,78.64
2023-05-22T00:43:54.856Z,78.90
2023-05-22T00:46:23.010Z,78.65
2023-05-22T00:48:50.197Z,78.74
2023-05-22T00:51:17.033Z,78.95
2023-05-22T00:53:44.659Z,79.10
2023-05-22T00:56:12.514Z,79.17
2023-05-22T00:58:43.571Z,79.11
2023-05-22T01:01:11.727Z,79.28
2023-05-22T01:03:45.967Z,79.07
2023-05-22T01:06:18.088Z,79.26
2023-05-22T01:08:44.959Z,79.21
2023-05-22T01:11:39.985Z,79.31
2023-05-22T01:14:12.755Z,79.01
2023-05-22T01:16:59.870Z,79.04
2023-05-22T01:19:54.104Z,79.24
2023-05-22T01:22:40.990Z,78.98
2023-05-22T01:25:32.623Z,79.22
2023-05-22T01:28:18.311Z,79.28
2023-05-22T01:30:59.260Z,79.22
2023-05-22T01:33:28.903Z,79.56
2023-05-22T01:36:00.007Z,79.32
2023-05-22T01:38:27.428Z,79.20
2023-05-22T01:40:54.277Z,79.28
2023-05-22T01:43:21.455Z,79.32
2023-05-22T01:45:48.449Z,79.39
2023-05-22T01:48:15.225Z,79.37
2023-05-22T01:50:42.467Z,79.24
2023-05-22T01:53:24.218Z,79.15
2023-05-22T01:56:05.818Z,79.46
2023-05-22T01:58:44.943Z,79.38
2023-05-22T02:01:14.478Z,79.46
2023-05-22T02:03:42.609Z,79.66
2023-05-22T02:06:13.561Z,79.67
2023-05-22T02:08:41.952Z,79.38
2023-05-22T02:11:11.220Z,79.32
2023-05-22T02:13:38.585Z,79.24
2023-05-22T02:16:06.577Z,78.91
2023-05-22T02:18:33.820Z,78.29
2023-05-22T02:21:01.271Z,78.07
2023-05-22T02:23:29.817Z,77.48
2023-05-22T02:25:57.141Z,76.79
2023-05-22T02:28:24.354Z,76.43
2023-05-22T02:30:51.335Z,75.59
2023-05-22T02:33:18.758Z,75.40
2023-05-22T02:35:46.111Z,74.99
2023-05-22T02:38:13.148Z,74.73
2023-05-22T02:40:40.662Z,74.63
2023-05-22T02:43:08.216Z,74.58
2023-05-22T02:45:35.018Z,74.25
2023-05-22T02:48:03.806Z,74.19
2023-05-22T02:50:30.854Z,74.16
2023-05-22T02:52:57.589Z,73.63
2023-05-22T02:55:24.403Z,73.56
2023-05-22T02:57:51.198Z,73.34
2023-05-22T03:02:53.384Z,73.20
2023-05-22T03:05:20.393Z,73.31
2023-05-22T03:07:48.745Z,73.64
2023-05-22T03:10:16.358Z,73.58
2023-05-22T03:12:43.084Z,73.71
2023-05-22T03:15:11.158Z,73.68
2023-05-22T03:17:37.936Z,73.75
2023-05-22T03:20:05.518Z,73.89
2023-05-22T03:22:32.467Z,73.88
2023-05-22T03:24:59.249Z,74.09
2023-05-22T03:27:25.992Z,74.22
2023-05-22T03:29:52.772Z,74.25
2023-05-22T03:32:19.611Z,74.05
2023-05-22T03:34:46.412Z,73.93
2023-05-22T03:37:13.212Z,73.71
2023-05-22T03:39:40.125Z,73.86
2023-05-22T03:42:06.916Z,73.75
2023-05-22T03:44:33.665Z,73.52
2023-05-22T03:47:00.367Z,73.64
2023-05-22T03:49:27.076Z,73.59
2023-05-22T03:51:53.832Z,73.59
2023-05-22T03:54:20.591Z,73.49
2023-05-22T03:56:47.411Z,73.63
2023-05-22T03:59:14.232Z,73.51
2023-05-22T04:01:41.355Z,73.48
2023-05-22T04:04:09.655Z,73.64
2023-05-22T04:06:43.271Z,73.31
2023-05-22T04:09:13.488Z,73.13
2023-05-22T04:11:40.282Z,73.11
2023-05-22T04:14:07.097Z,73.15
2023-05-22T04:16:34.304Z,73.19
2023-05-22T04:19:04.573Z,73.28
2023-05-22T04:21:34.361Z,72.95
2023-05-22T04:24:07.446Z,73.07
2023-05-22T04:26:34.538Z,73.05
2023-05-22T04:29:01.372Z,73.11
2023-05-22T04:31:28.704Z,72.86
2023-05-22T04:33:56.155Z,72.80
2023-05-22T04:36:26.279Z,72.97
2023-05-22T04:38:54.166Z,72.93
2023-05-22T04:41:22.801Z,72.86
2023-05-22T04:43:49.943Z,72.84
2023-05-22T04:46:16.779Z,73.00
2023-05-22T04:48:43.608Z,72.70
2023-05-22T04:51:10.570Z,72.94
2023-05-22T04:53:38.848Z,72.77
2023-05-22T04:56:06.611Z,72.66
2023-05-22T04:58:33.486Z,72.69
2023-05-22T05:01:00.338Z,72.75
2023-05-22T05:03:27.423Z,72.59
2023-05-22T05:05:54.821Z,72.75
2023-05-22T05:08:21.563Z,72.96
2023-05-22T05:10:48.467Z,73.05
2023-05-22T05:13:15.174Z,72.88
2023-05-22T05:15:41.939Z,72.62
2023-05-22T05:18:08.740Z,72.63
2023-05-22T05:20:36.146Z,72.84
2023-05-22T05:23:02.921Z,72.97
2023-05-22T05:25:29.716Z,72.72
2023-05-22T05:27:57.718Z,72.81
2023-05-22T05:30:24.459Z,72.85
2023-05-22T05:32:51.258Z,72.61
2023-05-22T05:35:18.089Z,72.74
2023-05-22T05:37:44.857Z,72.79
2023-05-22T05:40:12.206Z,72.78
2023-05-22T05:42:39.072Z,72.92
2023-05-22T05:45:06.093Z,72.94
2023-05-22T05:47:33.043Z,72.73
2023-05-22T05:50:00.902Z,72.82
2023-05-22T05:52:32.635Z,72.68
2023-05-22T05:55:01.011Z,72.81
2023-05-22T05:57:28.935Z,72.78
2023-05-22T05:59:55.629Z,72.68
2023-05-22T06:02:22.478Z,72.35
2023-05-22T06:04:49.373Z,72.25
2023-05-22T06:07:16.534Z,72.23
2023-05-22T06:09:43.268Z,72.17
2023-05-22T06:12:13.295Z,72.26
2023-05-22T06:14:43.115Z,71.95
2023-05-22T06:17:10.108Z,71.76
2023-05-22T06:19:37.488Z,71.53
2023-05-22T06:22:04.395Z,71.86
2023-05-22T06:24:34.176Z,71.09
2023-05-22T06:27:02.566Z,71.39
2023-05-22T06:29:29.357Z,71.34
2023-05-22T06:31:56.591Z,71.15
2023-05-22T06:34:25.936Z,71.23
2023-05-22T06:36:52.733Z,71.01
2023-05-22T06:39:19.613Z,71.19
2023-05-22T06:41:46.412Z,70.68
2023-05-22T06:44:13.404Z,70.80
2023-05-22T06:46:40.374Z,70.61
2023-05-22T06:49:07.643Z,70.42
2023-05-22T06:51:34.539Z,70.55
2023-05-22T06:54:01.488Z,70.33
2023-05-22T06:56:28.302Z,69.94
2023-05-22T06:58:55.122Z,70.04
2023-05-22T07:01:21.992Z,69.83
2023-05-22T07:03:48.768Z,69.54
2023-05-22T07:06:16.750Z,69.22
2023-05-22T07:08:43.839Z,69.16
2023-05-22T07:11:10.537Z,69.14
2023-05-22T07:13:37.539Z,68.99
2023-05-22T07:16:04.541Z,68.69
2023-05-22T07:18:31.470Z,68.41
2023-05-22T07:20:58.758Z,67.96
2023-05-22T07:23:26.301Z,67.67
2023-05-22T07:25:53.337Z,67.41
2023-05-22T07:28:20.380Z,67.08
2023-05-22T07:30:48.175Z,66.90
2023-05-22T07:33:14.973Z,66.85
2023-05-22T07:35:41.760Z,66.56
2023-05-22T07:38:08.527Z,66.27
2023-05-22T07:40:35.291Z,67.06
2023-05-22T07:43:01.981Z,66.81
2023-05-22T07:45:28.760Z,66.70
2023-05-22T07:47:56.451Z,66.78
2023-05-22T07:50:23.322Z,67.17
2023-05-22T07:52:50.075Z,67.72
2023-05-22T07:55:17.979Z,67.58
2023-05-22T07:57:45.039Z,66.71
2023-05-22T08:00:17.084Z,65.92
2023-05-22T08:02:44.133Z,64.47
2023-05-22T08:05:12.270Z,62.92
2023-05-22T08:07:39.146Z,61.38
2023-05-22T08:10:14.999Z,59.93
2023-05-22T08:12:41.854Z,58.11
2023-05-22T08:15:09.151Z,56.81
2023-05-22T08:17:36.185Z,56.01
2023-05-22T08:20:03.261Z,54.45
2023-05-22T08:22:31.207Z,53.46
2023-05-22T08:24:57.936Z,53.13
2023-05-22T08:27:24.757Z,52.22
2023-05-22T08:29:52.402Z,50.54
2023-05-22T08:32:19.176Z,50.31
2023-05-22T08:34:46.316Z,49.27
2023-05-22T08:37:15.115Z,48.72
2023-05-22T08:39:42.034Z,47.84
2023-05-22T08:42:08.958Z,47.21
2023-05-22T08:44:35.949Z,47.09
2023-05-22T08:47:05.346Z,46.57
2023-05-22T08:49:32.310Z,45.81
2023-05-22T08:52:13.179Z,46.32
2023-05-22T08:54:43.598Z,45.42
2023-05-22T08:57:11.021Z,45.03
2023-05-22T08:59:40.990Z,44.03
2023-05-22T09:02:09.830Z,43.80
2023-05-22T09:04:36.708Z,43.45
2023-05-22T09:07:05.976Z,42.82
2023-05-22T09:09:42.029Z,43.04
2023-05-22T09:12:10.594Z,42.62
2023-05-22T09:14:41.450Z,42.20
2023-05-22T09:17:11.530Z,42.34
2023-05-22T09:19:39.129Z,43.60
2023-05-22T09:22:06.524Z,43.54
2023-05-22T09:24:43.637Z,43.58
2023-05-22T09:27:23.330Z,42.95
2023-05-22T09:29:56.922Z,42.55
2023-05-22T09:32:24.875Z,42.00
2023-05-22T09:34:51.632Z,41.65
2023-05-22T09:37:18.744Z,41.12
2023-05-22T09:39:47.618Z,40.16
2023-05-22T09:42:18.248Z,40.70
2023-05-22T09:44:49.449Z,41.56
2023-05-22T09:47:16.204Z,41.98
2023-05-22T09:49:44.141Z,43.01
2023-05-22T09:52:12.754Z,43.33
2023-05-22T09:54:55.365Z,43.84
2023-05-22T09:57:25.690Z,44.47
2023-05-22T09:59:55.080Z,45.16
2023-05-22T10:02:23.878Z,44.17
2023-05-22T10:04:51.536Z,43.74
2023-05-22T10:07:37.780Z,42.93
2023-05-22T10:10:09.232Z,42.19
2023-05-22T10:12:43.517Z,41.65
2023-05-22T10:15:11.726Z,40.73
2023-05-22T10:17:39.764Z,40.60
2023-05-22T10:20:09.039Z,40.11
2023-05-22T10:22:40.620Z,39.59
2023-05-22T10:25:10.446Z,39.23
2023-05-22T10:27:38.313Z,39.77
2023-05-22T10:30:32.912Z,39.90
2023-05-22T10:33:18.277Z,40.54
2023-05-22T10:35:55.483Z,40.95
2023-05-22T10:38:33.186Z,40.65
2023-05-22T10:41:01.607Z,40.29
2023-05-22T10:43:31.781Z,40.77
2023-05-22T10:46:04.192Z,41.00
2023-05-22T10:48:38.424Z,40.86
2023-05-22T10:51:07.034Z,41.26
2023-05-22T10:53:34.894Z,41.45
2023-05-22T10:56:12.861Z,42.16
2023-05-22T10:58:41.613Z,41.31
2023-05-22T11:01:11.858Z,41.56
2023-05-22T11:04:00.876Z,42.08
2023-05-22T11:06:35.983Z,41.83
2023-05-22T11:09:28.459Z,42.17
2023-05-22T11:12:13.760Z,41.88
2023-05-22T11:14:56.856Z,42.46
2023-05-22T11:17:29.165Z,42.14
2023-05-22T11:19:59.936Z,43.04
2023-05-22T11:22:41.313Z,42.45
2023-05-22T11:25:28.473Z,42.92
2023-05-22T11:27:56.503Z,42.87
2023-05-22T11:30:28.566Z,43.73
2023-05-22T11:32:57.464Z,43.58
2023-05-22T11:35:24.963Z,43.32
2023-05-22T11:37:53.192Z,43.53
2023-05-22T11:40:21.765Z,43.07
2023-05-22T11:42:48.582Z,43.08
2023-05-22T11:45:15.804Z,42.79
2023-05-22T11:47:43.839Z,43.25
2023-05-22T11:50:13.542Z,43.07
2023-05-22T11:52:43.205Z,43.51
2023-05-22T11:55:11.378Z,43.97
2023-05-22T11:57:38.881Z,44.22
2023-05-22T12:00:08.526Z,43.73
2023-05-22T12:02:36.120Z,43.27
2023-05-22T12:05:05.997Z,43.60
2023-05-22T12:07:32.978Z,42.62
2023-05-22T12:10:01.314Z,42.86
2023-05-22T12:12:28.367Z,43.20
2023-05-22T12:14:55.162Z,42.95
2023-05-22T12:17:23.107Z,42.92
2023-05-22T12:19:49.881Z,42.95
2023-05-22T12:22:16.726Z,43.12
2023-05-22T12:24:47.324Z,43.01
2023-05-22T12:27:15.278Z,43.12
2023-05-22T12:29:43.791Z,42.58
2023-05-22T12:32:12.380Z,42.57
2023-05-22T12:34:47.009Z,42.66
2023-05-22T12:37:25.162Z,43.03
2023-05-22T12:40:00.008Z,42.67
2023-05-22T12:42:28.017Z,42.59
2023-05-22T12:44:56.543Z,42.04
2023-05-22T12:47:24.875Z,41.44
2023-05-22T12:49:51.805Z,41.30
2023-05-22T12:52:18.721Z,41.05
2023-05-22T12:54:45.604Z,41.28
2023-05-22T12:57:12.506Z,40.89
2023-05-22T12:59:39.341Z,40.56
2023-05-22T13:02:06.556Z,40.46
2023-05-22T13:04:34.006Z,41.18
2023-05-22T13:07:01.004Z,41.32
2023-05-22T13:09:29.767Z,41.02
2023-05-22T13:11:56.627Z,41.22
2023-05-22T13:14:23.478Z,41.45
2023-05-22T13:16:50.229Z,41.19
2023-05-22T13:19:17.185Z,40.65
2023-05-22T13:21:44.234Z,40.70
2023-05-22T13:24:11.139Z,40.53
2023-05-22T13:26:38.103Z,40.62
2023-05-22T13:29:05.045Z,40.27
2023-05-22T13:31:37.529Z,40.70
2023-05-22T13:34:05.400Z,40.71
2023-05-22T13:36:32.721Z,41.62
2023-05-22T13:38:59.547Z,41.79
2023-05-22T13:41:26.569Z,41.72
2023-05-22T13:43:53.457Z,40.97
2023-05-22T13:46:22.068Z,40.73
2023-05-22T13:48:48.877Z,41.08
2023-05-22T13:51:15.808Z,40.72
2023-05-22T13:53:42.594Z,41.04
2023-05-22T13:56:09.304Z,40.74
2023-05-22T13:58:36.119Z,41.19
2023-05-22T14:01:02.910Z,41.01
2023-05-22T14:03:29.787Z,40.80
2023-05-22T14:05:56.624Z,40.68
2023-05-22T14:08:24.940Z,40.62
2023-05-22T14:10:51.810Z,40.80
2023-05-22T14:13:18.853Z,41.26
2023-05-22T14:15:47.118Z,41.33
2023-05-22T14:18:14.682Z,41.38
2023-05-22T14:20:41.545Z,40.72
2023-05-22T14:23:15.177Z,40.47
2023-05-22T14:25:43.214Z,40.42
2023-05-22T14:28:16.943Z,41.26
2023-05-22T14:30:43.769Z,41.52
2023-05-22T14:33:11.427Z,41.29
2023-05-22T14:35:38.478Z,41.33
2023-05-22T14:38:05.561Z,40.65
2023-05-22T14:40:32.331Z,40.85
2023-05-22T14:42:59.093Z,40.95
2023-05-22T14:45:25.806Z,41.26
2023-05-22T14:47:52.538Z,41.12
2023-05-22T14:50:20.797Z,41.00
2023-05-22T14:52:50.154Z,40.13
2023-05-22T14:55:17.630Z,40.30
2023-05-22T14:57:44.929Z,39.93
2023-05-22T15:00:12.544Z,39.79
2023-05-22T15:02:39.625Z,39.66
2023-05-22T15:05:07.330Z,40.71
2023-05-22T15:10:05.331Z,40.94
2023-05-22T15:12:32.604Z,41.42
2023-05-22T15:14:59.437Z,41.87
2023-05-22T15:17:26.448Z,41.48
2023-05-22T15:19:53.221Z,41.26
2023-05-22T15:22:20.328Z,40.29
2023-05-22T15:24:48.275Z,39.96
2023-05-22T15:27:15.087Z,40.16
2023-05-22T15:29:42.058Z,40.48
2023-05-22T15:32:09.282Z,40.16
2023-05-22T15:34:36.189Z,39.99
2023-05-22T15:37:02.953Z,39.68
2023-05-22T15:39:29.787Z,39.11
2023-05-22T15:42:05.828Z,39.30
2023-05-22T15:44:33.718Z,38.71
2023-05-22T15:47:00.525Z,39.12
2023-05-22T15:49:30.164Z,38.70
2023-05-22T15:51:58.588Z,38.88
2023-05-22T15:54:25.490Z,39.04
2023-05-22T15:56:52.270Z,39.29
2023-05-22T15:59:19.030Z,39.71
2023-05-22T16:01:45.961Z,39.72
2023-05-22T16:04:12.826Z,39.71
2023-05-22T16:06:39.589Z,39.62
2023-05-22T16:09:06.436Z,39.79
2023-05-22T16:11:37.775Z,39.32
2023-05-22T16:14:05.646Z,39.08
2023-05-22T16:16:32.661Z,39.10
2023-05-22T16:18:59.587Z,38.87
2023-05-22T16:21:26.390Z,38.57
2023-05-22T16:23:53.157Z,38.42
2023-05-22T16:26:19.991Z,38.74
2023-05-22T16:28:46.772Z,38.99
2023-05-22T16:31:17.047Z,38.55
2023-05-22T16:33:45.830Z,38.41
2023-05-22T16:36:12.566Z,38.17
2023-05-22T16:38:39.354Z,37.51
2023-05-22T16:41:06.189Z,37.94
2023-05-22T16:43:32.942Z,38.80
2023-05-22T16:45:59.738Z,38.83
2023-05-22T16:48:26.523Z,39.32
2023-05-22T16:50:53.394Z,39.70
2023-05-22T16:53:20.229Z,39.53
2023-05-22T16:55:46.957Z,39.63
2023-05-22T16:58:14.135Z,39.51
2023-05-22T17:00:41.526Z,39.77
2023-05-22T17:03:09.843Z,40.68
2023-05-22T17:05:37.529Z,40.70
2023-05-22T17:08:04.484Z,40.98
2023-05-22T17:10:31.299Z,40.71
2023-05-22T17:12:58.107Z,41.08
2023-05-22T17:15:25.208Z,41.67
2023-05-22T17:17:52.096Z,42.00
2023-05-22T17:20:19.083Z,42.44
2023-05-22T17:22:45.874Z,42.37
2023-05-22T17:25:13.522Z,42.33
2023-05-22T17:27:40.695Z,43.33
2023-05-22T17:30:08.514Z,42.60
2023-05-22T17:32:35.752Z,43.09
2023-05-22T17:35:02.815Z,43.05
2023-05-22T17:37:29.612Z,42.85
2023-05-22T17:39:56.425Z,43.62
2023-05-22T17:42:23.321Z,43.27
2023-05-22T17:44:50.108Z,43.75
2023-05-22T17:47:18.379Z,43.81
2023-05-22T17:49:45.155Z,43.36
2023-05-22T17:52:13.241Z,43.72
2023-05-22T17:54:40.051Z,43.75
2023-05-22T17:57:07.134Z,43.51
2023-05-22T17:59:35.749Z,43.57
2023-05-22T18:02:04.651Z,44.23
2023-05-22T18:04:31.504Z,44.57
2023-05-22T18:06:58.277Z,44.58
2023-05-22T18:09:25.200Z,45.00
2023-05-22T18:11:53.125Z,45.12
2023-05-22T18:14:20.516Z,45.22
2023-05-22T18:16:47.331Z,45.38
2023-05-22T18:19:14.468Z,45.68
2023-05-22T18:21:41.804Z,45.78
2023-05-22T18:24:08.920Z,45.83
2023-05-22T18:26:35.794Z,46.00
2023-05-22T18:29:02.565Z,46.40
2023-05-22T18:31:30.712Z,46.60
2023-05-22T18:33:57.543Z,46.81
2023-05-22T18:36:24.474Z,46.58
2023-05-22T18:38:51.277Z,47.06
2023-05-22T18:41:18.125Z,47.22
2023-05-22T18:43:44.938Z,47.46
2023-05-22T18:46:11.805Z,47.67
2023-05-22T18:48:38.610Z,47.58
2023-05-22T18:51:05.457Z,47.76
2023-05-22T18:53:32.335Z,48.10
2023-05-22T18:55:59.208Z,48.08
2023-05-22T18:58:26.880Z,48.34
2023-05-22T19:00:55.786Z,48.28
2023-05-22T19:03:23.975Z,48.41
2023-05-22T19:05:50.859Z,48.11
2023-05-22T19:08:17.700Z,48.41
2023-05-22T19:10:44.613Z,48.54
2023-05-22T19:13:11.450Z,48.60
2023-05-22T19:15:38.604Z,48.71
2023-05-22T19:18:05.584Z,48.73
2023-05-22T19:20:32.484Z,49.18
2023-05-22T19:22:59.344Z,49.44
2023-05-22T19:25:26.316Z,49.37
2023-05-22T19:27:53.129Z,49.75
2023-05-22T19:30:21.989Z,49.50
2023-05-22T19:32:55.943Z,49.80
2023-05-22T19:35:22.831Z,49.80
2023-05-22T19:37:50.301Z,50.04
2023-05-22T19:40:17.179Z,50.17
2023-05-22T19:42:44.322Z,50.48
2023-05-22T19:45:11.336Z,50.64
2023-05-22T19:47:38.149Z,50.72
2023-05-22T19:50:05.499Z,50.99
2023-05-22T19:52:32.307Z,51.12
2023-05-22T19:54:59.026Z,51.40
2023-05-22T19:57:27.238Z,51.23
2023-05-22T19:59:54.710Z,51.77
2023-05-22T20:02:21.881Z,51.90
2023-05-22T20:04:49.299Z,52.02
2023-05-22T20:07:16.621Z,52.17
2023-05-22T20:09:43.387Z,52.33
2023-05-22T20:12:11.298Z,52.43
2023-05-22T20:14:38.768Z,52.64
2023-05-22T20:17:05.762Z,52.83
2023-05-22T20:19:34.612Z,53.05
2023-05-22T20:22:02.194Z,53.00
2023-05-22T20:24:29.712Z,53.51
2023-05-22T20:26:57.037Z,53.67
2023-05-22T20:29:23.823Z,53.63
2023-05-22T20:31:54.698Z,54.24
2023-05-22T20:34:22.260Z,54.33
2023-05-22T20:36:49.153Z,54.49
2023-05-22T20:39:16.427Z,54.67
2023-05-22T20:41:43.198Z,55.04
2023-05-22T20:44:10.724Z,55.26
2023-05-22T20:46:37.539Z,55.36
2023-05-22T20:49:05.270Z,55.51
2023-05-22T20:51:32.807Z,55.71
2023-05-22T20:54:00.357Z,55.86
2023-05-22T20:56:27.729Z,56.34
2023-05-22T20:58:55.888Z,56.46
2023-05-22T21:01:23.644Z,56.57
2023-05-22T21:03:51.863Z,56.93
2023-05-22T21:06:19.520Z,56.86
2023-05-22T21:08:46.356Z,57.06
2023-05-22T21:11:13.303Z,57.48
2023-05-22T21:13:40.092Z,57.43
2023-05-22T21:16:07.187Z,57.71
2023-05-22T21:18:34.131Z,57.84
2023-05-22T21:21:01.005Z,57.89
2023-05-22T21:23:27.843Z,57.94
2023-05-22T21:25:54.617Z,57.85
2023-05-22T21:28:21.338Z,58.17
2023-05-22T21:30:49.883Z,57.83
2023-05-22T21:33:16.838Z,58.22
2023-05-22T21:35:44.685Z,58.28
2023-05-22T21:38:11.468Z,58.36
2023-05-22T21:40:40.691Z,58.41
2023-05-22T21:43:07.744Z,58.61
2023-05-22T21:45:34.886Z,58.94
2023-05-22T21:48:01.916Z,58.92
2023-05-22T21:50:29.647Z,59.08
2023-05-22T21:52:56.664Z,59.14
2023-05-22T21:55:25.644Z,59.13
2023-05-22T21:57:52.374Z,59.55
2023-05-22T22:00:19.373Z,59.58
2023-05-22T22:02:46.282Z,59.71
2023-05-22T22:05:13.754Z,59.78
2023-05-22T22:07:40.590Z,59.91
2023-05-22T22:10:07.924Z,60.14
2023-05-22T22:12:34.679Z,60.42
2023-05-22T22:15:02.562Z,60.44
2023-05-22T22:17:30.481Z,60.48
2023-05-22T22:19:57.365Z,60.71
2023-05-22T22:22:25.026Z,60.87
2023-05-22T22:24:51.871Z,60.87
2023-05-22T22:27:19.799Z,61.16
2023-05-22T22:29:47.067Z,61.27
2023-05-22T22:32:13.993Z,61.35
2023-05-22T22:34:42.100Z,61.33
2023-05-22T22:37:09.070Z,61.20
2023-05-22T22:39:35.784Z,61.32
2023-05-22T22:42:05.212Z,61.40
2023-05-22T22:44:32.318Z,61.60
2023-05-22T22:46:59.391Z,61.84
2023-05-22T22:49:26.164Z,62.06
2023-05-22T22:51:53.580Z,62.12
2023-05-22T22:54:20.945Z,62.12
2023-05-22T22:56:49.876Z,62.32
2023-05-22T22:59:16.989Z,62.42
2023-05-22T23:01:44.080Z,62.28
2023-05-22T23:04:11.235Z,62.29
2023-05-22T23:06:38.196Z,62.49
2023-05-22T23:09:05.014Z,62.45
2023-05-22T23:11:37.538Z,62.34
2023-05-22T23:14:08.518Z,62.47
2023-05-22T23:16:40.876Z,62.54
2023-05-22T23:19:09.346Z,62.63
2023-05-22T23:21:36.942Z,62.61
2023-05-22T23:24:04.924Z,62.62
2023-05-22T23:26:32.559Z,62.68
2023-05-22T23:29:00.121Z,62.78
2023-05-22T23:31:30.344Z,62.83
2023-05-22T23:33:58.211Z,62.65
2023-05-22T23:36:25.663Z,62.52
2023-05-22T23:38:53.592Z,62.63
2023-05-22T23:41:20.402Z,62.57
2023-05-22T23:43:47.488Z,62.56
2023-05-22T23:46:14.818Z,62.73
2023-05-22T23:48:42.491Z,62.64
2023-05-22T23:51:10.080Z,62.74
2023-05-22T23:53:37.170Z,62.82
2023-05-22T23:56:04.695Z,62.80
2023-05-22T23:58:32.261Z,62.81
